SAAP/PRA METAR and TAF weather

Enter ICAO airport designator
Station Type Date Time Source
SAAP METAR 2021/05/13 10:26 UTC NOAA

SAAP 131026Z 00000KT 2000 MIFG NSC 05/04 Q1022


Station Type Date Time Source
SAAP Decoded METAR 2021/05/13 10:26 UTC NOAA

Parana Aerodrome, Argentina (SAAP) 31-47S 060-29W 78M
May 13, 2021 - 06:26 AM EDT / 2021.05.13 1026 UTC
Wind: Calm:0
Visibility: 1 mile(s):0
Weather: shallow fog
Temperature: 41 F (5 C)
Dew Point: 39 F (4 C)
Relative Humidity: 93%
Pressure (altimeter): 30.18 in. Hg (1022 hPa)
ob: SAAP 131026Z 00000KT 2000 MIFG NSC 05/04 Q1022
cycle: 10

Station Type Date Time Source
SAAP TAF 2021/03/28 06:24 UTC NOAA

TAF TAF SAAP 280500Z 2806/2906 25010KT 9999 BKN020 TX24/2818Z TN14/2809Z
BECMG 2806/2808 20010KT 9999 BKN008
BECMG 2810/2812 9999 BKN020
BECMG 2900/2902 23005KT CAVOK

Example: see airport list